createdAt,value
2019-06-10T00:00:54.970Z,314.41
2019-06-10T00:01:53.730Z,313.77
2019-06-10T00:02:53.706Z,313.91
2019-06-10T00:03:53.690Z,315.88
2019-06-10T00:04:53.684Z,313.63
2019-06-10T00:05:53.671Z,313.36
2019-06-10T00:06:53.685Z,313.29
2019-06-10T00:07:53.698Z,314.30
2019-06-10T00:08:53.679Z,313.60
2019-06-10T00:09:53.616Z,314.52
2019-06-10T00:10:53.608Z,316.49
2019-06-10T00:11:53.627Z,314.73
2019-06-10T00:12:55.348Z,315.26
2019-06-10T00:13:53.592Z,315.91
2019-06-10T00:14:53.576Z,315.77
2019-06-10T00:15:53.553Z,322.22
2019-06-10T00:16:53.553Z,317.90
2019-06-10T00:18:13.220Z,317.71
2019-06-10T00:18:54.519Z,315.29
2019-06-10T00:19:53.516Z,311.92
2019-06-10T00:20:53.510Z,314.38
2019-06-10T00:21:53.530Z,316.48
2019-06-10T00:22:53.482Z,313.93
2019-06-10T00:23:53.473Z,315.16
2019-06-10T00:24:53.452Z,314.28
2019-06-10T00:25:53.455Z,315.49
2019-06-10T00:26:53.442Z,315.47
2019-06-10T00:27:53.428Z,314.75
2019-06-10T00:28:53.405Z,314.89
2019-06-10T00:29:53.406Z,317.23
2019-06-10T00:30:53.396Z,317.47
2019-06-10T00:31:53.383Z,313.65
2019-06-10T00:32:53.377Z,319.96
2019-06-10T00:33:53.367Z,319.19
2019-06-10T00:34:53.345Z,314.30
2019-06-10T00:35:53.324Z,316.80
2019-06-10T00:36:53.315Z,317.91
2019-06-10T00:37:53.342Z,315.11
2019-06-10T00:38:53.293Z,316.01
2019-06-10T00:39:53.296Z,317.87
2019-06-10T00:40:53.287Z,317.98
2019-06-10T00:41:53.261Z,312.21
2019-06-10T00:42:53.254Z,316.59
2019-06-10T00:43:53.271Z,318.21
2019-06-10T00:44:53.246Z,316.67
2019-06-10T00:45:53.248Z,316.40
2019-06-10T00:46:53.223Z,317.42
2019-06-10T00:48:07.637Z,316.56
2019-06-10T00:48:54.204Z,318.05
2019-06-10T00:49:53.180Z,319.70
2019-06-10T00:50:53.159Z,316.90
2019-06-10T00:51:53.158Z,318.19
2019-06-10T00:52:53.154Z,316.05
2019-06-10T00:53:53.142Z,318.18
2019-06-10T00:54:53.136Z,318.50
2019-06-10T00:55:53.116Z,317.58
2019-06-10T00:56:53.111Z,317.16
2019-06-10T00:57:53.096Z,318.56
2019-06-10T00:58:53.104Z,318.16
2019-06-10T00:59:53.069Z,317.85
2019-06-10T01:00:53.051Z,317.26
2019-06-10T01:01:53.042Z,315.28
2019-06-10T01:02:53.030Z,316.65
2019-06-10T01:03:53.037Z,318.26
2019-06-10T01:04:53.013Z,316.17
2019-06-10T01:05:53.005Z,315.75
2019-06-10T01:06:52.996Z,315.76
2019-06-10T01:07:52.991Z,315.52
2019-06-10T01:08:52.963Z,314.96
2019-06-10T01:09:52.976Z,316.97
2019-06-10T01:10:52.947Z,315.05
2019-06-10T01:11:52.944Z,317.52
2019-06-10T01:12:52.927Z,315.41
2019-06-10T01:13:52.907Z,314.92
2019-06-10T01:14:52.927Z,316.83
2019-06-10T01:15:52.904Z,316.00
2019-06-10T01:16:52.879Z,318.51
2019-06-10T01:17:52.878Z,314.38
2019-06-10T01:18:53.672Z,315.02
2019-06-10T01:19:52.852Z,318.50
2019-06-10T01:20:52.855Z,317.51
2019-06-10T01:21:52.843Z,317.67
2019-06-10T01:22:52.821Z,316.33
2019-06-10T01:23:52.807Z,315.02
2019-06-10T01:24:52.798Z,316.06
2019-06-10T01:25:52.796Z,314.88
2019-06-10T01:26:52.778Z,315.45
2019-06-10T01:27:52.757Z,318.26
2019-06-10T01:28:52.747Z,314.26
2019-06-10T01:29:52.742Z,316.01
2019-06-10T01:30:52.762Z,316.24
2019-06-10T01:31:52.708Z,313.49
2019-06-10T01:32:52.711Z,314.65
2019-06-10T01:33:52.693Z,313.95
2019-06-10T01:34:52.692Z,316.60
2019-06-10T01:35:52.679Z,315.14
2019-06-10T01:36:52.684Z,314.41
2019-06-10T01:37:52.647Z,313.40
2019-06-10T01:38:52.643Z,314.22
2019-06-10T01:39:52.639Z,314.91
2019-06-10T01:40:52.623Z,316.67
2019-06-10T01:41:52.618Z,314.54
2019-06-10T01:42:52.591Z,314.75
2019-06-10T01:43:52.594Z,314.74
2019-06-10T01:44:52.581Z,315.33
2019-06-10T01:45:52.566Z,315.25
2019-06-10T01:46:52.561Z,314.24
2019-06-10T01:47:52.547Z,313.56
2019-06-10T01:48:52.535Z,314.91
2019-06-10T01:49:52.522Z,316.00
2019-06-10T01:50:52.517Z,315.53
2019-06-10T01:51:52.509Z,314.00
2019-06-10T01:52:52.478Z,316.31
2019-06-10T01:53:52.467Z,312.89
2019-06-10T01:54:52.461Z,316.52
2019-06-10T01:55:52.460Z,314.55
2019-06-10T01:56:52.450Z,314.39
2019-06-10T01:57:52.459Z,312.80
2019-06-10T01:58:52.434Z,315.47
2019-06-10T01:59:52.408Z,314.17
2019-06-10T02:00:52.435Z,313.63
2019-06-10T02:01:52.405Z,314.64
2019-06-10T02:02:52.590Z,314.47
2019-06-10T02:03:52.364Z,315.25
2019-06-10T02:04:52.348Z,314.31
2019-06-10T02:05:52.343Z,315.80
2019-06-10T02:06:52.342Z,314.48
2019-06-10T02:07:52.337Z,314.15
2019-06-10T02:08:52.311Z,316.07
2019-06-10T02:09:52.295Z,313.90
2019-06-10T02:10:52.300Z,314.02
2019-06-10T02:11:52.270Z,315.27
2019-06-10T02:12:52.286Z,314.47
2019-06-10T02:13:52.248Z,316.84
2019-06-10T02:14:52.239Z,315.96
2019-06-10T02:15:52.241Z,315.43
2019-06-10T02:16:52.220Z,314.30
2019-06-10T02:17:52.202Z,314.13
2019-06-10T02:19:00.035Z,315.03
2019-06-10T02:19:53.191Z,314.67
2019-06-10T02:20:52.183Z,316.81
2019-06-10T02:21:52.172Z,314.06
2019-06-10T02:22:52.147Z,313.64
2019-06-10T02:23:52.243Z,315.64
2019-06-10T02:24:52.125Z,314.49
2019-06-10T02:25:52.114Z,313.69
2019-06-10T02:26:52.113Z,313.66
2019-06-10T02:27:52.101Z,314.22
2019-06-10T02:28:52.105Z,313.15
2019-06-10T02:29:52.080Z,313.29
2019-06-10T02:30:55.790Z,313.61
2019-06-10T02:31:52.413Z,315.22
2019-06-10T02:32:52.494Z,313.69
2019-06-10T02:33:52.643Z,314.96
2019-06-10T02:35:03.443Z,315.92
2019-06-10T02:35:53.856Z,316.29
2019-06-10T02:36:53.634Z,316.07
2019-06-10T02:37:54.003Z,315.45
2019-06-10T02:38:53.934Z,317.92
2019-06-10T02:39:54.197Z,318.76
2019-06-10T02:40:53.877Z,315.05
2019-06-10T02:41:53.511Z,314.47
2019-06-10T02:42:53.990Z,320.06
2019-06-10T02:43:53.468Z,327.52
2019-06-10T02:44:54.046Z,331.42
2019-06-10T02:45:53.077Z,324.00
2019-06-10T02:46:54.419Z,325.72
2019-06-10T02:47:53.304Z,325.41
2019-06-10T02:48:54.482Z,321.46
2019-06-10T02:50:01.338Z,322.63
2019-06-10T02:50:53.879Z,316.25
2019-06-10T02:51:53.798Z,318.56
2019-06-10T02:52:53.076Z,323.82
2019-06-10T02:53:53.822Z,322.57
2019-06-10T02:54:53.463Z,317.68
2019-06-10T02:55:53.901Z,316.96
2019-06-10T02:56:53.687Z,322.67
2019-06-10T02:57:53.319Z,321.13
2019-06-10T02:58:53.497Z,315.95
2019-06-10T02:59:54.453Z,309.28
2019-06-10T03:00:54.612Z,318.36
2019-06-10T03:01:53.666Z,319.88
2019-06-10T03:02:53.061Z,322.19
2019-06-10T03:03:54.228Z,316.85
2019-06-10T03:04:53.628Z,313.36
2019-06-10T03:05:53.722Z,319.95
2019-06-10T03:06:54.251Z,320.18
2019-06-10T03:07:53.296Z,320.18
2019-06-10T03:08:54.926Z,319.17
2019-06-10T03:09:53.807Z,317.50
2019-06-10T03:10:54.438Z,314.74
2019-06-10T03:11:53.477Z,320.23
2019-06-10T03:12:52.815Z,316.80
2019-06-10T03:13:53.122Z,318.11
2019-06-10T03:14:52.569Z,317.32
2019-06-10T03:15:52.253Z,316.52
2019-06-10T03:16:52.748Z,322.50
2019-06-10T03:17:52.139Z,314.37
2019-06-10T03:18:52.526Z,323.87
2019-06-10T03:19:53.569Z,322.86
2019-06-10T03:20:52.845Z,320.74
2019-06-10T03:21:52.190Z,323.11
2019-06-10T03:22:52.519Z,324.16
2019-06-10T03:23:53.145Z,321.40
2019-06-10T03:24:52.408Z,319.69
2019-06-10T03:25:52.734Z,319.03
2019-06-10T03:26:52.189Z,321.48
2019-06-10T03:27:52.532Z,319.12
2019-06-10T03:28:52.036Z,318.66
2019-06-10T03:29:52.695Z,318.58
2019-06-10T03:30:55.354Z,319.42
2019-06-10T03:31:55.246Z,321.18
2019-06-10T03:32:55.360Z,319.55
2019-06-10T03:33:54.426Z,320.18
2019-06-10T03:34:54.878Z,318.06
2019-06-10T03:35:52.640Z,320.80
2019-06-10T03:36:53.361Z,319.76
2019-06-10T03:37:52.817Z,316.74
2019-06-10T03:38:53.681Z,319.70
2019-06-10T03:39:53.102Z,318.17
2019-06-10T03:40:52.456Z,318.40
2019-06-10T03:41:52.794Z,315.80
2019-06-10T03:42:52.037Z,315.24
2019-06-10T03:43:53.112Z,316.77
2019-06-10T03:44:52.572Z,319.53
2019-06-10T03:45:53.154Z,319.48
2019-06-10T03:46:52.337Z,319.52
2019-06-10T03:47:52.704Z,318.00
2019-06-10T03:48:52.664Z,317.78
2019-06-10T03:49:53.458Z,316.19
2019-06-10T03:50:52.440Z,320.85
2019-06-10T03:51:52.938Z,319.69
2019-06-10T03:52:52.456Z,321.63
2019-06-10T03:53:53.106Z,321.08
2019-06-10T03:54:52.520Z,318.59
2019-06-10T03:55:52.652Z,320.35
2019-06-10T03:56:52.116Z,321.32
2019-06-10T03:57:52.610Z,322.76
2019-06-10T03:58:52.119Z,322.48
2019-06-10T03:59:52.778Z,323.33
2019-06-10T04:00:52.234Z,322.99
2019-06-10T04:01:52.891Z,326.99
2019-06-10T04:02:53.106Z,326.03
2019-06-10T04:03:52.986Z,323.98
2019-06-10T04:04:52.336Z,323.31
2019-06-10T04:05:52.694Z,324.47
2019-06-10T04:06:53.215Z,322.95
2019-06-10T04:07:52.696Z,321.87
2019-06-10T04:08:52.230Z,320.91
2019-06-10T04:09:52.590Z,320.13
2019-06-10T04:10:52.072Z,320.24
2019-06-10T04:11:52.863Z,319.78
2019-06-10T04:12:52.354Z,320.39
2019-06-10T04:13:53.358Z,320.17
2019-06-10T04:14:52.180Z,321.80
2019-06-10T04:15:53.310Z,319.41
2019-06-10T04:16:52.528Z,320.64
2019-06-10T04:17:53.013Z,319.25
2019-06-10T04:18:53.270Z,320.75
2019-06-10T04:20:07.563Z,319.71
2019-06-10T04:20:52.873Z,322.66
2019-06-10T04:21:53.045Z,319.95
2019-06-10T04:22:52.295Z,319.63
2019-06-10T04:23:52.797Z,320.39
2019-06-10T04:24:52.081Z,322.44
2019-06-10T04:25:52.687Z,317.48
2019-06-10T04:26:52.131Z,321.52
2019-06-10T04:27:52.430Z,320.81
2019-06-10T04:28:52.853Z,322.30
2019-06-10T04:29:52.385Z,320.20
2019-06-10T04:30:53.091Z,321.15
2019-06-10T04:31:52.408Z,320.61
2019-06-10T04:32:52.779Z,320.75
2019-06-10T04:33:52.356Z,320.65
2019-06-10T04:34:52.868Z,320.08
2019-06-10T04:35:52.018Z,321.19
2019-06-10T04:36:52.614Z,321.64
2019-06-10T04:37:52.042Z,321.61
2019-06-10T04:38:52.506Z,321.81
2019-06-10T04:39:52.918Z,321.56
2019-06-10T04:40:52.563Z,321.01
2019-06-10T04:41:52.985Z,320.69
2019-06-10T04:42:52.523Z,320.33
2019-06-10T04:43:53.007Z,321.22
2019-06-10T04:44:52.530Z,320.82
2019-06-10T04:45:52.607Z,320.88
2019-06-10T04:46:52.067Z,319.98
2019-06-10T04:47:52.439Z,319.87
2019-06-10T04:48:53.027Z,316.02
2019-06-10T04:49:52.242Z,319.93
2019-06-10T04:50:53.165Z,320.92
2019-06-10T04:51:52.377Z,320.99
2019-06-10T04:52:52.763Z,320.95
2019-06-10T04:53:52.481Z,320.35
2019-06-10T04:54:52.602Z,320.51
2019-06-10T04:55:52.271Z,321.42
2019-06-10T04:56:52.752Z,320.12
2019-06-10T04:57:52.120Z,319.81
2019-06-10T04:58:52.572Z,319.92
2019-06-10T04:59:50.417Z,319.83
2019-06-10T05:00:52.333Z,320.14
2019-06-10T05:01:52.884Z,321.36
2019-06-10T05:02:52.247Z,321.06
2019-06-10T05:03:52.455Z,320.58
2019-06-10T05:04:50.353Z,318.96
2019-06-10T05:05:52.622Z,320.13
2019-06-10T05:06:52.538Z,318.69
2019-06-10T05:07:52.066Z,319.63
2019-06-10T05:08:50.296Z,318.51
2019-06-10T05:09:52.437Z,319.51
2019-06-10T05:10:50.286Z,319.53
2019-06-10T05:11:52.253Z,319.04
2019-06-10T05:12:52.446Z,319.12
2019-06-10T05:13:50.257Z,318.00
2019-06-10T05:14:52.521Z,319.00
2019-06-10T05:15:52.571Z,320.01
2019-06-10T05:16:50.227Z,314.52
2019-06-10T05:17:52.545Z,319.81
2019-06-10T05:18:54.058Z,320.07
2019-06-10T05:19:50.217Z,319.97
2019-06-10T05:20:57.719Z,319.99
2019-06-10T05:21:52.413Z,319.33
2019-06-10T05:22:50.164Z,321.13
2019-06-10T05:23:52.158Z,321.50
2019-06-10T05:24:50.145Z,320.10
2019-06-10T05:25:52.636Z,321.12
2019-06-10T05:26:52.547Z,317.06
2019-06-10T05:27:52.138Z,320.40
2019-06-10T05:28:52.268Z,320.07
2019-06-10T05:29:50.075Z,319.07
2019-06-10T05:30:50.069Z,318.68
2019-06-10T05:31:52.175Z,321.09
2019-06-10T05:32:52.268Z,320.04
2019-06-10T05:33:50.036Z,319.09
2019-06-10T05:34:52.655Z,319.91
2019-06-10T05:35:50.011Z,318.53
2019-06-10T05:36:52.423Z,319.61
2019-06-10T05:37:49.991Z,320.76
2019-06-10T05:38:52.379Z,321.07
2019-06-10T05:39:49.959Z,321.25
2019-06-10T05:40:51.994Z,320.32
2019-06-10T05:41:50.839Z,319.96
2019-06-10T05:42:49.983Z,320.76
2019-06-10T05:43:52.099Z,318.34
2019-06-10T05:44:52.278Z,319.25
2019-06-10T05:45:49.901Z,318.98
2019-06-10T05:46:49.885Z,319.89
2019-06-10T05:47:49.874Z,319.45
2019-06-10T05:48:52.403Z,321.33
2019-06-10T05:49:49.855Z,321.79
2019-06-10T05:51:00.117Z,319.79
2019-06-10T05:51:52.672Z,319.86
2019-06-10T05:52:51.919Z,320.22
2019-06-10T05:53:49.813Z,320.97
2019-06-10T05:54:51.993Z,321.18
2019-06-10T05:55:49.808Z,318.89
2019-06-10T05:56:52.053Z,317.64
2019-06-10T05:57:49.764Z,320.87
2019-06-10T05:58:52.268Z,319.03
2019-06-10T05:59:52.144Z,318.60
2019-06-10T06:00:49.742Z,318.93
2019-06-10T06:01:49.719Z,317.52
2019-06-10T06:02:52.118Z,318.94
2019-06-10T06:03:49.699Z,319.03
2019-06-10T06:04:49.685Z,317.84
2019-06-10T06:05:49.670Z,318.84
2019-06-10T06:06:49.666Z,317.81
2019-06-10T06:08:04.149Z,319.28
2019-06-10T06:08:53.162Z,318.60
2019-06-10T06:09:49.631Z,319.68
2019-06-10T06:10:49.617Z,318.92
2019-06-10T06:11:49.599Z,319.59
2019-06-10T06:12:49.603Z,319.64
2019-06-10T06:13:52.043Z,319.82
2019-06-10T06:14:49.590Z,318.74
2019-06-10T06:15:49.568Z,319.97
2019-06-10T06:16:49.552Z,318.83
2019-06-10T06:18:04.047Z,319.86
2019-06-10T06:18:52.485Z,319.25
2019-06-10T06:19:49.554Z,317.59
2019-06-10T06:20:49.518Z,319.16
2019-06-10T06:21:49.540Z,317.72
2019-06-10T06:22:49.489Z,318.28
2019-06-10T06:23:49.493Z,316.84
2019-06-10T06:24:49.493Z,318.89
2019-06-10T06:25:49.458Z,319.24
2019-06-10T06:26:49.437Z,317.23
2019-06-10T06:27:49.437Z,319.15
2019-06-10T06:28:49.422Z,319.50
2019-06-10T06:29:49.411Z,317.63
2019-06-10T06:30:49.428Z,319.52
2019-06-10T06:31:49.386Z,319.20
2019-06-10T06:32:49.380Z,320.99
2019-06-10T06:33:49.356Z,317.95
2019-06-10T06:34:49.360Z,317.49
2019-06-10T06:35:49.355Z,315.71
2019-06-10T06:36:49.327Z,317.71
2019-06-10T06:37:49.318Z,317.97
2019-06-10T06:38:49.307Z,317.88
2019-06-10T06:39:49.307Z,315.73
2019-06-10T06:40:49.322Z,317.00
2019-06-10T06:41:49.284Z,320.03
2019-06-10T06:42:49.340Z,318.80
2019-06-10T06:43:49.248Z,320.09
2019-06-10T06:44:49.306Z,316.30
2019-06-10T06:45:49.248Z,315.50
2019-06-10T06:46:49.305Z,315.80
2019-06-10T06:47:49.259Z,316.47
2019-06-10T06:48:52.982Z,317.59
2019-06-10T06:49:49.184Z,317.12
2019-06-10T06:51:02.050Z,317.01
2019-06-10T06:51:56.085Z,318.51
2019-06-10T06:53:19.039Z,317.53
2019-06-10T06:53:53.029Z,317.13
2019-06-10T06:54:50.131Z,316.61
2019-06-10T06:55:49.121Z,318.41
2019-06-10T06:56:49.138Z,315.68
2019-06-10T06:57:49.105Z,317.62
2019-06-10T06:58:49.094Z,318.58
2019-06-10T06:59:49.084Z,317.32
2019-06-10T07:01:03.781Z,316.30
2019-06-10T07:01:52.329Z,318.98
2019-06-10T07:02:49.059Z,316.30
2019-06-10T07:03:49.031Z,316.63
2019-06-10T07:04:49.032Z,318.26
2019-06-10T07:05:49.052Z,318.30
2019-06-10T07:06:49.012Z,317.93
2019-06-10T07:07:48.997Z,318.55
2019-06-10T07:09:03.746Z,318.23
2019-06-10T07:09:49.974Z,320.88
2019-06-10T07:10:48.954Z,320.79
2019-06-10T07:11:48.963Z,320.64
2019-06-10T07:12:48.951Z,322.77
2019-06-10T07:13:48.938Z,318.70
2019-06-10T07:14:48.938Z,320.48
2019-06-10T07:15:48.908Z,318.07
2019-06-10T07:16:48.903Z,315.65
2019-06-10T07:17:48.902Z,317.74
2019-06-10T07:18:50.282Z,315.26
2019-06-10T07:19:48.861Z,318.02
2019-06-10T07:20:48.886Z,309.95
2019-06-10T07:22:06.644Z,315.68
2019-06-10T07:22:49.863Z,314.06
2019-06-10T07:23:48.840Z,315.51
2019-06-10T07:24:48.810Z,316.60
2019-06-10T07:25:48.799Z,312.87
2019-06-10T07:26:52.184Z,315.27
2019-06-10T07:27:49.792Z,316.22
2019-06-10T07:28:48.778Z,314.93
2019-06-10T07:29:48.744Z,315.80
2019-06-10T07:30:52.748Z,313.64
2019-06-10T07:31:51.047Z,314.16
2019-06-10T07:32:48.736Z,317.96
2019-06-10T07:33:48.717Z,316.91
2019-06-10T07:34:48.713Z,314.57
2019-06-10T07:35:48.691Z,311.41
2019-06-10T07:36:48.686Z,314.49
2019-06-10T07:37:48.686Z,315.74
2019-06-10T07:38:49.272Z,314.74
2019-06-10T07:39:48.644Z,314.13
2019-06-10T07:40:48.640Z,314.69
2019-06-10T07:41:48.692Z,312.74
2019-06-10T07:42:48.629Z,316.63
2019-06-10T07:43:49.748Z,313.35
2019-06-10T07:44:48.596Z,314.88
2019-06-10T07:45:48.583Z,314.32
2019-06-10T07:46:48.565Z,313.17
2019-06-10T07:47:48.549Z,314.74
2019-06-10T07:48:52.504Z,314.16
2019-06-10T07:49:49.534Z,315.63
2019-06-10T07:50:48.522Z,308.74
2019-06-10T07:51:48.516Z,315.63
2019-06-10T07:52:48.501Z,313.81
2019-06-10T07:53:48.497Z,318.42
2019-06-10T07:54:48.477Z,315.49
2019-06-10T07:55:48.476Z,313.70
2019-06-10T07:56:50.668Z,311.79
2019-06-10T07:57:49.446Z,316.43
2019-06-10T07:58:48.472Z,316.84
2019-06-10T07:59:48.412Z,314.58
2019-06-10T08:00:48.682Z,315.53
2019-06-10T08:01:51.780Z,312.71
2019-06-10T08:02:49.383Z,315.41
2019-06-10T08:03:48.390Z,317.65
2019-06-10T08:04:48.396Z,313.33
2019-06-10T08:05:48.368Z,318.40
2019-06-10T08:06:50.067Z,313.94
2019-06-10T08:07:49.017Z,313.66
2019-06-10T08:08:48.316Z,317.79
2019-06-10T08:09:48.340Z,318.72
2019-06-10T08:10:48.331Z,315.59
2019-06-10T08:11:48.805Z,316.86
2019-06-10T08:12:48.402Z,319.15
2019-06-10T08:13:48.263Z,319.51
2019-06-10T08:14:48.282Z,317.63
2019-06-10T08:15:48.451Z,320.36
2019-06-10T08:16:48.670Z,324.07
2019-06-10T08:17:48.339Z,315.60
2019-06-10T08:19:16.159Z,318.44
2019-06-10T08:19:51.132Z,321.21
2019-06-10T08:20:48.229Z,313.64
2019-06-10T08:21:49.538Z,318.40
2019-06-10T08:22:54.041Z,314.97
2019-06-10T08:23:49.168Z,317.99
2019-06-10T08:24:48.449Z,314.02
2019-06-10T08:25:53.674Z,316.85
2019-06-10T08:26:49.141Z,317.10
2019-06-10T08:27:49.353Z,318.57
2019-06-10T08:28:48.405Z,317.90
2019-06-10T08:29:49.798Z,317.61
2019-06-10T08:30:49.098Z,314.12
2019-06-10T08:31:49.915Z,314.68
2019-06-10T08:32:53.177Z,316.48
2019-06-10T08:33:49.207Z,316.59
2019-06-10T08:34:48.211Z,310.73
2019-06-10T08:35:56.379Z,310.64
2019-06-10T08:36:50.814Z,318.52
2019-06-10T08:37:48.990Z,312.77
2019-06-10T08:38:48.788Z,310.62
2019-06-10T08:39:48.000Z,310.64
2019-06-10T08:40:48.514Z,311.52
2019-06-10T08:41:49.276Z,318.25
2019-06-10T08:42:48.915Z,315.72
2019-06-10T08:43:48.525Z,314.62
2019-06-10T08:44:48.623Z,315.70
2019-06-10T08:45:48.822Z,310.20
2019-06-10T08:46:48.671Z,317.59
2019-06-10T08:47:49.166Z,315.16
2019-06-10T08:48:49.495Z,315.04
2019-06-10T08:49:49.128Z,316.46
2019-06-10T08:50:49.944Z,317.26
2019-06-10T08:51:50.047Z,317.22
2019-06-10T08:53:03.690Z,315.17
2019-06-10T08:53:50.079Z,313.68
2019-06-10T08:54:50.952Z,312.80
2019-06-10T08:55:50.299Z,315.20
2019-06-10T08:56:50.716Z,314.86
2019-06-10T08:57:50.971Z,315.27
2019-06-10T08:58:49.650Z,316.25
2019-06-10T08:59:49.263Z,309.42
2019-06-10T09:00:49.484Z,315.54
2019-06-10T09:01:51.551Z,318.32
2019-06-10T09:02:50.815Z,314.58
2019-06-10T09:03:49.447Z,313.64
2019-06-10T09:04:50.389Z,315.93
2019-06-10T09:05:50.711Z,312.55
2019-06-10T09:06:50.592Z,310.07
2019-06-10T09:07:50.878Z,311.08
2019-06-10T09:08:51.273Z,313.14
2019-06-10T09:09:50.361Z,314.87
2019-06-10T09:10:49.858Z,317.04
2019-06-10T09:11:51.303Z,319.42
2019-06-10T09:12:50.980Z,316.07
2019-06-10T09:13:50.354Z,312.14
2019-06-10T09:14:48.769Z,310.00
2019-06-10T09:16:03.685Z,312.86
2019-06-10T09:16:49.353Z,309.38
2019-06-10T09:17:49.632Z,316.20
2019-06-10T09:18:50.861Z,311.84
2019-06-10T09:19:50.066Z,316.81
2019-06-10T09:20:52.425Z,312.66
2019-06-10T09:21:52.412Z,315.14
2019-06-10T09:23:06.497Z,312.12
2019-06-10T09:23:55.869Z,311.71
2019-06-10T09:24:52.367Z,311.94
2019-06-10T09:25:52.824Z,313.32
2019-06-10T09:26:51.247Z,312.81
2019-06-10T09:27:49.403Z,313.60
2019-06-10T09:28:52.419Z,314.00
2019-06-10T09:29:52.104Z,318.67
2019-06-10T09:30:54.109Z,321.17
2019-06-10T09:31:51.305Z,314.25
2019-06-10T09:32:51.203Z,319.22
2019-06-10T09:33:50.762Z,317.38
2019-06-10T09:34:52.296Z,314.84
2019-06-10T09:35:50.933Z,304.21
2019-06-10T09:36:50.089Z,308.12
2019-06-10T09:37:51.120Z,314.76
2019-06-10T09:38:49.068Z,313.01
2019-06-10T09:39:52.493Z,309.76
2019-06-10T09:40:53.233Z,317.49
2019-06-10T09:41:59.716Z,313.79
2019-06-10T09:42:52.028Z,319.26
2019-06-10T09:43:50.823Z,319.08
2019-06-10T09:44:50.312Z,320.28
2019-06-10T09:45:49.139Z,316.33
2019-06-10T09:46:48.984Z,315.81
2019-06-10T09:47:53.002Z,308.76
2019-06-10T09:48:50.307Z,323.17
2019-06-10T09:49:50.207Z,311.37
2019-06-10T09:50:52.394Z,317.39
2019-06-10T09:51:50.646Z,317.42
2019-06-10T09:52:52.417Z,313.48
2019-06-10T09:53:56.176Z,313.44
2019-06-10T09:54:55.695Z,311.77
2019-06-10T09:55:51.000Z,303.76
2019-06-10T09:56:48.822Z,307.18
2019-06-10T09:57:49.761Z,313.68
2019-06-10T09:58:49.667Z,308.67
2019-06-10T09:59:51.368Z,307.67
2019-06-10T10:00:50.836Z,316.85
2019-06-10T10:01:50.972Z,315.10
2019-06-10T10:02:51.485Z,318.04
2019-06-10T10:03:53.484Z,315.42
2019-06-10T10:04:52.554Z,306.17
2019-06-10T10:05:59.444Z,309.37
2019-06-10T10:06:50.514Z,308.95
2019-06-10T10:07:50.771Z,304.87
2019-06-10T10:08:51.467Z,311.99
2019-06-10T10:09:51.396Z,318.35
2019-06-10T10:10:51.085Z,310.09
2019-06-10T10:11:49.266Z,308.37
2019-06-10T10:12:49.022Z,310.98
2019-06-10T10:13:49.431Z,311.40
2019-06-10T10:14:54.239Z,309.39
2019-06-10T10:15:48.236Z,311.00
2019-06-10T10:16:52.256Z,311.39
2019-06-10T10:17:49.493Z,310.40
2019-06-10T10:18:49.473Z,313.91
2019-06-10T10:19:49.659Z,306.13
2019-06-10T10:20:49.586Z,310.34
2019-06-10T10:21:51.230Z,315.92
2019-06-10T10:22:49.247Z,316.90
2019-06-10T10:23:54.017Z,308.48
2019-06-10T10:24:49.252Z,314.63
2019-06-10T10:25:48.251Z,314.35
2019-06-10T10:26:49.077Z,312.80
2019-06-10T10:27:50.871Z,307.41
2019-06-10T10:28:48.775Z,316.31
2019-06-10T10:29:48.877Z,316.76
2019-06-10T10:30:49.197Z,309.45
2019-06-10T10:31:49.474Z,315.50
2019-06-10T10:32:50.484Z,314.80
2019-06-10T10:33:46.838Z,315.36
2019-06-10T10:34:48.343Z,308.73
2019-06-10T10:35:48.021Z,314.82
2019-06-10T10:36:48.362Z,306.00
2019-06-10T10:37:46.696Z,312.20
2019-06-10T10:38:46.808Z,310.26
2019-06-10T10:39:46.731Z,310.74
2019-06-10T10:40:48.801Z,310.47
2019-06-10T10:41:47.142Z,311.98
2019-06-10T10:42:52.223Z,303.85
2019-06-10T10:43:51.212Z,310.23
2019-06-10T10:44:50.008Z,310.00
2019-06-10T10:45:50.347Z,310.81
2019-06-10T10:46:47.609Z,302.79
2019-06-10T10:47:46.961Z,308.48
2019-06-10T10:48:47.091Z,312.61
2019-06-10T10:49:47.046Z,311.10
2019-06-10T10:50:47.481Z,312.14
2019-06-10T10:51:46.988Z,312.50
2019-06-10T10:52:48.201Z,310.89
2019-06-10T10:53:50.533Z,308.53
2019-06-10T10:54:47.937Z,318.05
2019-06-10T10:55:47.188Z,312.53
2019-06-10T10:56:49.189Z,317.37
2019-06-10T10:57:47.288Z,308.60
2019-06-10T10:58:47.677Z,308.93
2019-06-10T10:59:47.760Z,309.47
2019-06-10T11:00:49.310Z,314.07
2019-06-10T11:01:47.530Z,311.74
2019-06-10T11:02:48.735Z,310.31
2019-06-10T11:03:48.157Z,309.79
2019-06-10T11:04:47.899Z,309.38
2019-06-10T11:05:49.484Z,312.12
2019-06-10T11:06:47.760Z,309.89
2019-06-10T11:07:47.537Z,313.77
2019-06-10T11:08:48.034Z,311.22
2019-06-10T11:09:46.983Z,310.79
2019-06-10T11:10:48.200Z,309.89
2019-06-10T11:11:47.222Z,312.68
2019-06-10T11:12:46.995Z,312.51
2019-06-10T11:13:47.386Z,313.31
2019-06-10T11:14:46.986Z,311.99
2019-06-10T11:15:47.336Z,313.23
2019-06-10T11:16:47.169Z,315.07
2019-06-10T11:17:47.258Z,312.72
2019-06-10T11:18:47.178Z,312.82
2019-06-10T11:19:47.285Z,313.41
2019-06-10T11:20:47.351Z,314.61
2019-06-10T11:21:47.387Z,311.49
2019-06-10T11:22:47.499Z,317.51
2019-06-10T11:23:46.293Z,312.69
2019-06-10T11:24:47.791Z,312.85
2019-06-10T11:25:46.154Z,311.83
2019-06-10T11:26:46.154Z,311.53
2019-06-10T11:27:46.423Z,316.04
2019-06-10T11:28:47.363Z,312.97
2019-06-10T11:29:46.172Z,313.21
2019-06-10T11:30:47.277Z,312.04
2019-06-10T11:31:46.303Z,314.19
2019-06-10T11:32:46.215Z,316.22
2019-06-10T11:33:46.890Z,318.25
2019-06-10T11:34:46.346Z,316.38
2019-06-10T11:35:46.724Z,314.49
2019-06-10T11:36:46.240Z,311.44
2019-06-10T11:37:46.828Z,310.78
2019-06-10T11:38:46.292Z,313.92
2019-06-10T11:39:46.017Z,311.11
2019-06-10T11:40:47.149Z,313.90
2019-06-10T11:41:46.005Z,314.28
2019-06-10T11:42:46.314Z,313.41
2019-06-10T11:43:46.340Z,315.80
2019-06-10T11:44:46.376Z,316.47
2019-06-10T11:45:51.155Z,316.77
2019-06-10T11:46:46.926Z,315.31
2019-06-10T11:47:46.680Z,315.99
2019-06-10T11:48:46.990Z,310.51
2019-06-10T11:49:46.878Z,313.14
2019-06-10T11:50:47.038Z,312.60
2019-06-10T11:51:47.102Z,311.50
2019-06-10T11:52:45.870Z,317.15
2019-06-10T11:53:45.862Z,313.64
2019-06-10T11:54:55.733Z,314.23
2019-06-10T11:55:47.651Z,314.86
2019-06-10T11:56:45.847Z,312.20
2019-06-10T11:57:45.814Z,310.24
2019-06-10T11:58:45.818Z,314.01
2019-06-10T11:59:45.853Z,308.55
2019-06-10T12:00:45.784Z,310.84
2019-06-10T12:01:45.784Z,310.38
2019-06-10T12:02:45.762Z,313.20
2019-06-10T12:03:45.748Z,311.34
2019-06-10T12:04:45.771Z,311.38
2019-06-10T12:05:45.802Z,316.76
2019-06-10T12:06:45.713Z,314.16
2019-06-10T12:07:45.723Z,319.21
2019-06-10T12:08:45.689Z,313.34
2019-06-10T12:09:45.695Z,313.97
2019-06-10T12:10:45.688Z,314.68
2019-06-10T12:11:45.663Z,312.93
2019-06-10T12:12:45.665Z,309.14
2019-06-10T12:13:45.647Z,312.47
2019-06-10T12:14:45.685Z,308.85
2019-06-10T12:16:30.477Z,313.48
2019-06-10T12:17:51.050Z,312.46
2019-06-10T12:18:46.738Z,314.49
2019-06-10T12:19:45.575Z,314.34
2019-06-10T12:20:45.576Z,310.49
2019-06-10T12:21:45.554Z,311.62
2019-06-10T12:22:45.641Z,311.84
2019-06-10T12:23:45.527Z,313.07
2019-06-10T12:24:45.526Z,312.77
2019-06-10T12:25:47.939Z,315.83
2019-06-10T12:26:45.512Z,314.26
2019-06-10T12:27:45.489Z,313.64
2019-06-10T12:28:45.480Z,313.37
2019-06-10T12:29:45.527Z,311.34